EGPD/ABZ METAR and TAF weather

Enter ICAO airport designator
Station Type Date Time Source
EGPD METAR 2021/04/14 20:20 UTC NOAA

EGPD 142020Z AUTO VRB03KT 9999 NCD 02/M01 Q1035 NOSIG


Station Type Date Time Source
EGPD Decoded METAR 2021/04/14 20:20 UTC NOAA

Aberdeen / Dyce, United Kingdom (EGPD) 57-12N 002-13W 0M
Apr 14, 2021 - 04:20 PM EDT / 2021.04.14 2020 UTC
Wind: Variable at 3 MPH (3 KT):0
Visibility: greater than 7 mile(s):0
Temperature: 35 F (2 C)
Dew Point: 30 F (-1 C)
Relative Humidity: 80%
Pressure (altimeter): 30.56 in. Hg (1035 hPa)
ob: EGPD 142020Z AUTO VRB03KT 9999 NCD 02/M01 Q1035 NOSIG
cycle: 20

Station Type Date Time Source
EGPD TAF 2021/04/14 18:06 UTC NOAA

TAF EGPD 141658Z 1418/1518 12010KT 9999 FEW040
BECMG 1418/1421 VRB03KT
BECMG 1508/1511 14010KT

Example: see airport list